sensor_id;sensor_type;location;lat;lon;timestamp;temperature;humidity
23124;DHT22;11731;48.592;8.858;2023-10-09T00:01:01;15.10;99.90
23124;DHT22;11731;48.592;8.858;2023-10-09T00:03:29;15.20;99.90
23124;DHT22;11731;48.592;8.858;2023-10-09T00:05:58;15.00;99.90
23124;DHT22;11731;48.592;8.858;2023-10-09T00:10:52;15.00;99.90
23124;DHT22;11731;48.592;8.858;2023-10-09T00:13:19;15.00;99.90
23124;DHT22;11731;48.592;8.858;2023-10-09T00:15:53;15.10;99.90
23124;DHT22;11731;48.592;8.858;2023-10-09T00:18:25;15.00;99.90
23124;DHT22;11731;48.592;8.858;2023-10-09T00:20:55;15.10;99.90
23124;DHT22;11731;48.592;8.858;2023-10-09T00:23:27;15.00;99.90
23124;DHT22;11731;48.592;8.858;2023-10-09T00:25:57;15.00;99.90
23124;DHT22;11731;48.592;8.858;2023-10-09T00:28:36;15.00;99.90
23124;DHT22;11731;48.592;8.858;2023-10-09T00:31:07;15.00;99.90
23124;DHT22;11731;48.592;8.858;2023-10-09T00:33:40;15.00;99.90
23124;DHT22;11731;48.592;8.858;2023-10-09T00:36:07;14.90;99.90
23124;DHT22;11731;48.592;8.858;2023-10-09T00:38:37;14.80;99.90
23124;DHT22;11731;48.592;8.858;2023-10-09T00:41:10;14.90;99.90
23124;DHT22;11731;48.592;8.858;2023-10-09T00:43:45;14.80;99.90
23124;DHT22;11731;48.592;8.858;2023-10-09T00:46:15;14.80;99.90
23124;DHT22;11731;48.592;8.858;2023-10-09T00:48:52;14.90;99.90
23124;DHT22;11731;48.592;8.858;2023-10-09T00:51:21;14.80;99.90
23124;DHT22;11731;48.592;8.858;2023-10-09T00:53:53;14.80;99.90
23124;DHT22;11731;48.592;8.858;2023-10-09T00:56:23;14.90;99.90
23124;DHT22;11731;48.592;8.858;2023-10-09T00:59:04;14.90;99.90
23124;DHT22;11731;48.592;8.858;2023-10-09T01:01:34;14.90;99.90
23124;DHT22;11731;48.592;8.858;2023-10-09T01:04:02;15.00;99.90
23124;DHT22;11731;48.592;8.858;2023-10-09T01:06:42;14.90;99.90
23124;DHT22;11731;48.592;8.858;2023-10-09T01:09:14;14.80;99.90
23124;DHT22;11731;48.592;8.858;2023-10-09T01:11:58;14.80;99.90
23124;DHT22;11731;48.592;8.858;2023-10-09T01:14:30;14.90;99.90
23124;DHT22;11731;48.592;8.858;2023-10-09T01:17:07;14.80;99.90
23124;DHT22;11731;48.592;8.858;2023-10-09T01:19:37;14.50;99.90
23124;DHT22;11731;48.592;8.858;2023-10-09T01:22:06;14.70;99.90
23124;DHT22;11731;48.592;8.858;2023-10-09T01:24:40;14.70;99.90
23124;DHT22;11731;48.592;8.858;2023-10-09T01:27:07;14.70;99.90
23124;DHT22;11731;48.592;8.858;2023-10-09T01:29:38;14.80;99.90
23124;DHT22;11731;48.592;8.858;2023-10-09T01:32:07;14.80;99.90
23124;DHT22;11731;48.592;8.858;2023-10-09T01:34:42;14.80;99.90
23124;DHT22;11731;48.592;8.858;2023-10-09T01:37:11;14.80;99.90
23124;DHT22;11731;48.592;8.858;2023-10-09T01:39:45;14.70;99.90
23124;DHT22;11731;48.592;8.858;2023-10-09T01:42:14;14.60;99.90
23124;DHT22;11731;48.592;8.858;2023-10-09T01:44:50;14.80;99.90
23124;DHT22;11731;48.592;8.858;2023-10-09T01:47:17;14.70;99.90
23124;DHT22;11731;48.592;8.858;2023-10-09T01:49:47;14.70;99.90
23124;DHT22;11731;48.592;8.858;2023-10-09T01:52:15;14.60;99.90
23124;DHT22;11731;48.592;8.858;2023-10-09T01:54:44;14.50;99.90
23124;DHT22;11731;48.592;8.858;2023-10-09T01:57:14;14.50;99.90
23124;DHT22;11731;48.592;8.858;2023-10-09T01:59:47;14.50;99.90
23124;DHT22;11731;48.592;8.858;2023-10-09T02:02:16;14.50;99.90
23124;DHT22;11731;48.592;8.858;2023-10-09T02:04:52;14.50;99.90
23124;DHT22;11731;48.592;8.858;2023-10-09T02:17:23;14.50;99.90
23124;DHT22;11731;48.592;8.858;2023-10-09T02:19:55;14.50;99.90
23124;DHT22;11731;48.592;8.858;2023-10-09T02:49:06;15.10;99.90
23124;DHT22;11731;48.592;8.858;2023-10-09T02:54:57;15.20;99.90
23124;DHT22;11731;48.592;8.858;2023-10-09T02:57:26;15.10;99.90
23124;DHT22;11731;48.592;8.858;2023-10-09T03:03:09;15.00;99.90
23124;DHT22;11731;48.592;8.858;2023-10-09T03:05:38;15.10;99.90
23124;DHT22;11731;48.592;8.858;2023-10-09T03:08:08;15.10;99.90
23124;DHT22;11731;48.592;8.858;2023-10-09T03:10:37;15.10;99.90
23124;DHT22;11731;48.592;8.858;2023-10-09T03:13:04;15.10;99.90
23124;DHT22;11731;48.592;8.858;2023-10-09T03:15:31;15.20;99.90
23124;DHT22;11731;48.592;8.858;2023-10-09T03:21:24;15.10;99.90
23124;DHT22;11731;48.592;8.858;2023-10-09T03:23:52;15.10;99.90
23124;DHT22;11731;48.592;8.858;2023-10-09T03:26:21;15.10;99.90
23124;DHT22;11731;48.592;8.858;2023-10-09T03:28:51;15.10;99.90
23124;DHT22;11731;48.592;8.858;2023-10-09T03:31:19;15.30;99.90
23124;DHT22;11731;48.592;8.858;2023-10-09T03:34:06;15.30;99.90
23124;DHT22;11731;48.592;8.858;2023-10-09T03:36:35;15.20;99.90
23124;DHT22;11731;48.592;8.858;2023-10-09T03:42:12;15.20;99.90
23124;DHT22;11731;48.592;8.858;2023-10-09T03:44:45;15.00;99.90
23124;DHT22;11731;48.592;8.858;2023-10-09T03:47:17;14.80;99.90
23124;DHT22;11731;48.592;8.858;2023-10-09T03:50:21;14.90;99.90
23124;DHT22;11731;48.592;8.858;2023-10-09T04:03:45;15.00;99.90
23124;DHT22;11731;48.592;8.858;2023-10-09T04:06:14;14.90;99.90
23124;DHT22;11731;48.592;8.858;2023-10-09T04:08:43;14.70;99.90
23124;DHT22;11731;48.592;8.858;2023-10-09T04:14:36;14.50;99.90
23124;DHT22;11731;48.592;8.858;2023-10-09T04:20:46;14.40;99.90
23124;DHT22;11731;48.592;8.858;2023-10-09T04:23:44;14.60;99.90
23124;DHT22;11731;48.592;8.858;2023-10-09T04:26:25;14.60;99.90
23124;DHT22;11731;48.592;8.858;2023-10-09T04:29:25;14.80;99.90
23124;DHT22;11731;48.592;8.858;2023-10-09T04:35:11;14.80;99.90
23124;DHT22;11731;48.592;8.858;2023-10-09T04:41:12;14.80;99.90
23124;DHT22;11731;48.592;8.858;2023-10-09T04:43:53;14.50;99.90
23124;DHT22;11731;48.592;8.858;2023-10-09T04:53:13;13.90;99.90
23124;DHT22;11731;48.592;8.858;2023-10-09T04:55:49;14.00;99.90
23124;DHT22;11731;48.592;8.858;2023-10-09T05:01:46;14.30;99.90
23124;DHT22;11731;48.592;8.858;2023-10-09T05:04:42;14.60;99.90
23124;DHT22;11731;48.592;8.858;2023-10-09T05:10:34;14.90;99.90
23124;DHT22;11731;48.592;8.858;2023-10-09T05:13:19;15.10;99.90
23124;DHT22;11731;48.592;8.858;2023-10-09T05:16:07;15.10;99.90
23124;DHT22;11731;48.592;8.858;2023-10-09T05:18:40;15.20;99.90
23124;DHT22;11731;48.592;8.858;2023-10-09T05:21:07;15.30;99.90
23124;DHT22;11731;48.592;8.858;2023-10-09T05:24:03;15.30;99.90
23124;DHT22;11731;48.592;8.858;2023-10-09T05:26:45;15.40;99.90
23124;DHT22;11731;48.592;8.858;2023-10-09T05:29:43;15.50;99.90
23124;DHT22;11731;48.592;8.858;2023-10-09T05:32:27;15.50;99.90
23124;DHT22;11731;48.592;8.858;2023-10-09T05:35:02;15.50;99.90
23124;DHT22;11731;48.592;8.858;2023-10-09T05:37:40;15.60;99.90
23124;DHT22;11731;48.592;8.858;2023-10-09T05:46:53;15.50;99.90
23124;DHT22;11731;48.592;8.858;2023-10-09T05:56:34;15.60;99.90
23124;DHT22;11731;48.592;8.858;2023-10-09T06:06:03;15.80;99.90
23124;DHT22;11731;48.592;8.858;2023-10-09T06:08:31;15.80;99.90
23124;DHT22;11731;48.592;8.858;2023-10-09T06:11:35;15.80;99.90
23124;DHT22;11731;48.592;8.858;2023-10-09T06:17:25;15.80;99.90
23124;DHT22;11731;48.592;8.858;2023-10-09T06:20:11;15.80;99.90
23124;DHT22;11731;48.592;8.858;2023-10-09T06:23:01;15.80;99.90
23124;DHT22;11731;48.592;8.858;2023-10-09T06:25:42;15.90;99.90
23124;DHT22;11731;48.592;8.858;2023-10-09T06:28:18;16.10;99.90
23124;DHT22;11731;48.592;8.858;2023-10-09T06:30:58;16.20;99.90
23124;DHT22;11731;48.592;8.858;2023-10-09T06:33:46;16.50;99.90
23124;DHT22;11731;48.592;8.858;2023-10-09T06:36:33;16.50;99.90
23124;DHT22;11731;48.592;8.858;2023-10-09T06:39:01;16.70;99.90
23124;DHT22;11731;48.592;8.858;2023-10-09T06:41:42;16.70;99.90
23124;DHT22;11731;48.592;8.858;2023-10-09T06:44:12;16.70;99.90
23124;DHT22;11731;48.592;8.858;2023-10-09T06:46:59;16.60;99.90
23124;DHT22;11731;48.592;8.858;2023-10-09T06:49:33;16.30;99.90
23124;DHT22;11731;48.592;8.858;2023-10-09T06:52:02;15.60;99.90
23124;DHT22;11731;48.592;8.858;2023-10-09T06:54:53;15.20;99.90
23124;DHT22;11731;48.592;8.858;2023-10-09T06:57:22;15.10;99.90
23124;DHT22;11731;48.592;8.858;2023-10-09T07:00:09;14.80;99.90
23124;DHT22;11731;48.592;8.858;2023-10-09T07:02:52;14.90;99.90
23124;DHT22;11731;48.592;8.858;2023-10-09T07:05:19;15.10;99.90
23124;DHT22;11731;48.592;8.858;2023-10-09T07:07:45;15.40;99.90
23124;DHT22;11731;48.592;8.858;2023-10-09T07:10:32;15.80;99.90
23124;DHT22;11731;48.592;8.858;2023-10-09T07:13:05;15.90;99.90
23124;DHT22;11731;48.592;8.858;2023-10-09T07:15:33;16.20;99.90
23124;DHT22;11731;48.592;8.858;2023-10-09T07:18:18;16.70;99.90
23124;DHT22;11731;48.592;8.858;2023-10-09T07:20:50;17.00;99.90
23124;DHT22;11731;48.592;8.858;2023-10-09T07:23:27;17.20;99.90
23124;DHT22;11731;48.592;8.858;2023-10-09T07:26:03;17.00;99.90
23124;DHT22;11731;48.592;8.858;2023-10-09T07:28:44;16.90;99.90
23124;DHT22;11731;48.592;8.858;2023-10-09T07:31:19;17.10;99.90
23124;DHT22;11731;48.592;8.858;2023-10-09T07:34:05;17.30;99.90
23124;DHT22;11731;48.592;8.858;2023-10-09T07:36:53;17.40;99.90
23124;DHT22;11731;48.592;8.858;2023-10-09T07:39:22;17.50;99.90
23124;DHT22;11731;48.592;8.858;2023-10-09T07:41:49;17.40;99.90
23124;DHT22;11731;48.592;8.858;2023-10-09T07:44:27;17.50;99.90
23124;DHT22;11731;48.592;8.858;2023-10-09T07:47:05;17.30;99.90
23124;DHT22;11731;48.592;8.858;2023-10-09T07:49:44;17.30;99.90
23124;DHT22;11731;48.592;8.858;2023-10-09T07:52:17;17.20;99.90
23124;DHT22;11731;48.592;8.858;2023-10-09T07:54:48;17.40;99.90
23124;DHT22;11731;48.592;8.858;2023-10-09T07:57:19;17.60;99.90
23124;DHT22;11731;48.592;8.858;2023-10-09T07:59:51;17.60;99.90
23124;DHT22;11731;48.592;8.858;2023-10-09T08:02:33;17.60;99.90
23124;DHT22;11731;48.592;8.858;2023-10-09T08:05:02;17.50;99.90
23124;DHT22;11731;48.592;8.858;2023-10-09T08:07:44;17.50;99.90
23124;DHT22;11731;48.592;8.858;2023-10-09T08:10:20;17.40;99.90
23124;DHT22;11731;48.592;8.858;2023-10-09T08:13:05;17.50;99.90
23124;DHT22;11731;48.592;8.858;2023-10-09T08:16:01;17.60;99.90
23124;DHT22;11731;48.592;8.858;2023-10-09T08:18:30;17.30;99.90
23124;DHT22;11731;48.592;8.858;2023-10-09T08:20:57;17.40;99.90
23124;DHT22;11731;48.592;8.858;2023-10-09T08:23:41;17.30;99.90
23124;DHT22;11731;48.592;8.858;2023-10-09T08:26:18;17.40;99.90
23124;DHT22;11731;48.592;8.858;2023-10-09T08:28:55;17.80;99.90
23124;DHT22;11731;48.592;8.858;2023-10-09T08:31:43;18.40;99.90
23124;DHT22;11731;48.592;8.858;2023-10-09T08:34:12;18.70;99.90
23124;DHT22;11731;48.592;8.858;2023-10-09T08:36:49;18.70;99.90
23124;DHT22;11731;48.592;8.858;2023-10-09T08:39:18;18.20;99.90
23124;DHT22;11731;48.592;8.858;2023-10-09T08:41:53;17.90;99.90
23124;DHT22;11731;48.592;8.858;2023-10-09T08:44:23;18.10;99.90
23124;DHT22;11731;48.592;8.858;2023-10-09T08:46:54;18.20;99.90
23124;DHT22;11731;48.592;8.858;2023-10-09T08:49:22;18.40;99.90
23124;DHT22;11731;48.592;8.858;2023-10-09T08:51:50;18.50;99.90
23124;DHT22;11731;48.592;8.858;2023-10-09T08:54:18;18.70;99.90
23124;DHT22;11731;48.592;8.858;2023-10-09T08:56:45;19.40;99.90
23124;DHT22;11731;48.592;8.858;2023-10-09T08:59:16;19.80;99.90
23124;DHT22;11731;48.592;8.858;2023-10-09T09:01:46;19.90;99.90
23124;DHT22;11731;48.592;8.858;2023-10-09T09:04:38;20.10;99.90
23124;DHT22;11731;48.592;8.858;2023-10-09T09:07:24;20.30;99.90
23124;DHT22;11731;48.592;8.858;2023-10-09T09:09:54;20.30;99.90
23124;DHT22;11731;48.592;8.858;2023-10-09T09:12:27;20.60;99.90
23124;DHT22;11731;48.592;8.858;2023-10-09T09:15:55;20.80;99.90
23124;DHT22;11731;48.592;8.858;2023-10-09T09:18:12;21.10;99.90
23124;DHT22;11731;48.592;8.858;2023-10-09T09:20:44;21.10;99.90
23124;DHT22;11731;48.592;8.858;2023-10-09T09:23:12;21.20;99.90
23124;DHT22;11731;48.592;8.858;2023-10-09T09:25:44;21.40;99.90
23124;DHT22;11731;48.592;8.858;2023-10-09T09:31:35;21.60;99.90
23124;DHT22;11731;48.592;8.858;2023-10-09T09:34:05;21.80;99.90
23124;DHT22;11731;48.592;8.858;2023-10-09T09:36:51;21.80;99.90
23124;DHT22;11731;48.592;8.858;2023-10-09T09:39:22;21.90;99.90
23124;DHT22;11731;48.592;8.858;2023-10-09T09:41:55;22.00;99.90
23124;DHT22;11731;48.592;8.858;2023-10-09T09:44:23;22.00;99.90
23124;DHT22;11731;48.592;8.858;2023-10-09T09:46:57;22.10;99.90
23124;DHT22;11731;48.592;8.858;2023-10-09T09:49:27;22.20;99.90
23124;DHT22;11731;48.592;8.858;2023-10-09T09:52:00;21.90;99.90
23124;DHT22;11731;48.592;8.858;2023-10-09T09:54:31;22.20;99.90
23124;DHT22;11731;48.592;8.858;2023-10-09T09:57:02;22.10;99.90
23124;DHT22;11731;48.592;8.858;2023-10-09T09:59:41;22.20;99.90
23124;DHT22;11731;48.592;8.858;2023-10-09T10:02:20;22.40;99.90
23124;DHT22;11731;48.592;8.858;2023-10-09T10:04:54;22.70;99.90
23124;DHT22;11731;48.592;8.858;2023-10-09T10:11:08;23.20;99.90
23124;DHT22;11731;48.592;8.858;2023-10-09T10:13:56;23.90;99.90
23124;DHT22;11731;48.592;8.858;2023-10-09T10:17:00;24.10;99.90
23124;DHT22;11731;48.592;8.858;2023-10-09T10:20:02;24.40;99.90
23124;DHT22;11731;48.592;8.858;2023-10-09T10:22:51;24.50;99.90
23124;DHT22;11731;48.592;8.858;2023-10-09T10:25:33;24.80;99.90
23124;DHT22;11731;48.592;8.858;2023-10-09T10:28:20;24.60;99.90
23124;DHT22;11731;48.592;8.858;2023-10-09T10:31:04;24.40;99.90
23124;DHT22;11731;48.592;8.858;2023-10-09T10:34:05;23.70;99.90
23124;DHT22;11731;48.592;8.858;2023-10-09T10:36:36;23.90;99.90
23124;DHT22;11731;48.592;8.858;2023-10-09T10:39:08;23.70;99.90
23124;DHT22;11731;48.592;8.858;2023-10-09T10:41:37;23.60;99.90
23124;DHT22;11731;48.592;8.858;2023-10-09T10:44:24;24.00;99.90
23124;DHT22;11731;48.592;8.858;2023-10-09T10:47:02;24.00;99.90
23124;DHT22;11731;48.592;8.858;2023-10-09T10:49:30;24.60;99.90
23124;DHT22;11731;48.592;8.858;2023-10-09T10:52:03;25.20;99.90
23124;DHT22;11731;48.592;8.858;2023-10-09T10:54:44;25.70;99.90
23124;DHT22;11731;48.592;8.858;2023-10-09T10:57:35;25.60;99.90
23124;DHT22;11731;48.592;8.858;2023-10-09T11:00:20;25.80;99.60
23124;DHT22;11731;48.592;8.858;2023-10-09T11:03:04;26.20;99.20
23124;DHT22;11731;48.592;8.858;2023-10-09T11:05:43;26.70;98.90
23124;DHT22;11731;48.592;8.858;2023-10-09T11:08:16;26.60;98.80
23124;DHT22;11731;48.592;8.858;2023-10-09T11:10:50;26.20;98.50
23124;DHT22;11731;48.592;8.858;2023-10-09T11:13:23;26.20;99.40
23124;DHT22;11731;48.592;8.858;2023-10-09T11:16:04;26.30;99.40
23124;DHT22;11731;48.592;8.858;2023-10-09T11:18:54;26.40;98.60
23124;DHT22;11731;48.592;8.858;2023-10-09T11:21:23;27.00;97.10
23124;DHT22;11731;48.592;8.858;2023-10-09T11:27:09;27.40;96.20
23124;DHT22;11731;48.592;8.858;2023-10-09T11:29:48;27.70;95.80
23124;DHT22;11731;48.592;8.858;2023-10-09T11:32:22;27.90;95.00
23124;DHT22;11731;48.592;8.858;2023-10-09T11:34:50;27.90;95.00
23124;DHT22;11731;48.592;8.858;2023-10-09T11:37:21;28.10;94.60
23124;DHT22;11731;48.592;8.858;2023-10-09T11:40:05;28.30;94.20
23124;DHT22;11731;48.592;8.858;2023-10-09T11:42:49;28.30;94.90
23124;DHT22;11731;48.592;8.858;2023-10-09T11:45:20;27.60;91.20
23124;DHT22;11731;48.592;8.858;2023-10-09T11:47:52;27.30;93.40
23124;DHT22;11731;48.592;8.858;2023-10-09T11:50:39;27.10;94.80
23124;DHT22;11731;48.592;8.858;2023-10-09T11:53:08;27.20;93.90
23124;DHT22;11731;48.592;8.858;2023-10-09T11:55:36;27.10;93.50
23124;DHT22;11731;48.592;8.858;2023-10-09T11:58:03;26.90;93.00
23124;DHT22;11731;48.592;8.858;2023-10-09T12:00:32;26.70;93.10
23124;DHT22;11731;48.592;8.858;2023-10-09T12:03:11;26.70;93.20
23124;DHT22;11731;48.592;8.858;2023-10-09T12:05:40;26.70;92.40
23124;DHT22;11731;48.592;8.858;2023-10-09T12:08:10;26.50;92.60
23124;DHT22;11731;48.592;8.858;2023-10-09T12:10:41;26.30;93.30
23124;DHT22;11731;48.592;8.858;2023-10-09T12:13:22;26.40;93.20
23124;DHT22;11731;48.592;8.858;2023-10-09T12:15:50;26.40;92.90
23124;DHT22;11731;48.592;8.858;2023-10-09T12:18:19;26.30;93.10
23124;DHT22;11731;48.592;8.858;2023-10-09T12:20:48;26.80;93.40
23124;DHT22;11731;48.592;8.858;2023-10-09T12:23:28;27.10;92.00
23124;DHT22;11731;48.592;8.858;2023-10-09T12:26:01;27.50;92.00
23124;DHT22;11731;48.592;8.858;2023-10-09T12:28:28;27.60;91.50
23124;DHT22;11731;48.592;8.858;2023-10-09T12:30:59;27.50;90.50
23124;DHT22;11731;48.592;8.858;2023-10-09T12:33:29;27.70;90.90
23124;DHT22;11731;48.592;8.858;2023-10-09T12:35:56;27.90;91.00
23124;DHT22;11731;48.592;8.858;2023-10-09T12:38:25;27.90;92.10
23124;DHT22;11731;48.592;8.858;2023-10-09T12:41:01;27.60;92.10
23124;DHT22;11731;48.592;8.858;2023-10-09T12:43:34;27.20;92.90
23124;DHT22;11731;48.592;8.858;2023-10-09T12:46:05;26.50;92.80
23124;DHT22;11731;48.592;8.858;2023-10-09T12:48:34;25.70;92.60
23124;DHT22;11731;48.592;8.858;2023-10-09T12:51:01;25.30;92.00
23124;DHT22;11731;48.592;8.858;2023-10-09T12:53:31;25.30;91.50
23124;DHT22;11731;48.592;8.858;2023-10-09T12:55:59;25.10;91.90
23124;DHT22;11731;48.592;8.858;2023-10-09T12:58:26;25.30;91.80
23124;DHT22;11731;48.592;8.858;2023-10-09T13:00:53;25.40;91.30
23124;DHT22;11731;48.592;8.858;2023-10-09T13:03:20;25.50;89.80
23124;DHT22;11731;48.592;8.858;2023-10-09T13:05:50;25.40;90.30
23124;DHT22;11731;48.592;8.858;2023-10-09T13:08:28;25.30;88.20
23124;DHT22;11731;48.592;8.858;2023-10-09T13:11:02;25.50;88.40
23124;DHT22;11731;48.592;8.858;2023-10-09T13:13:36;25.60;87.10
23124;DHT22;11731;48.592;8.858;2023-10-09T13:16:08;25.80;88.70
23124;DHT22;11731;48.592;8.858;2023-10-09T13:18:38;25.90;86.50
23124;DHT22;11731;48.592;8.858;2023-10-09T13:21:06;25.90;82.40
23124;DHT22;11731;48.592;8.858;2023-10-09T13:23:33;25.60;81.90
23124;DHT22;11731;48.592;8.858;2023-10-09T13:26:07;25.70;80.60
23124;DHT22;11731;48.592;8.858;2023-10-09T13:28:45;25.80;80.70
23124;DHT22;11731;48.592;8.858;2023-10-09T13:31:12;25.80;79.50
23124;DHT22;11731;48.592;8.858;2023-10-09T13:33:41;25.40;78.20
23124;DHT22;11731;48.592;8.858;2023-10-09T13:36:09;25.40;78.30
23124;DHT22;11731;48.592;8.858;2023-10-09T13:38:45;25.40;78.00
23124;DHT22;11731;48.592;8.858;2023-10-09T13:41:12;25.40;78.70
23124;DHT22;11731;48.592;8.858;2023-10-09T13:43:45;25.60;77.00
23124;DHT22;11731;48.592;8.858;2023-10-09T13:46:13;25.60;76.90
23124;DHT22;11731;48.592;8.858;2023-10-09T13:48:43;25.70;76.80
23124;DHT22;11731;48.592;8.858;2023-10-09T13:51:13;25.70;76.70
23124;DHT22;11731;48.592;8.858;2023-10-09T13:53:43;25.90;77.00
23124;DHT22;11731;48.592;8.858;2023-10-09T13:56:15;25.90;75.60
23124;DHT22;11731;48.592;8.858;2023-10-09T13:58:45;25.80;76.30
23124;DHT22;11731;48.592;8.858;2023-10-09T14:01:29;25.60;77.60
23124;DHT22;11731;48.592;8.858;2023-10-09T14:04:24;25.70;78.70
23124;DHT22;11731;48.592;8.858;2023-10-09T14:07:02;25.70;78.30
23124;DHT22;11731;48.592;8.858;2023-10-09T14:09:31;25.80;78.50
23124;DHT22;11731;48.592;8.858;2023-10-09T14:15:19;26.40;77.60
23124;DHT22;11731;48.592;8.858;2023-10-09T14:17:46;26.60;80.30
23124;DHT22;11731;48.592;8.858;2023-10-09T14:20:21;26.70;80.00
23124;DHT22;11731;48.592;8.858;2023-10-09T14:22:59;26.80;80.00
23124;DHT22;11731;48.592;8.858;2023-10-09T14:25:32;26.70;81.30
23124;DHT22;11731;48.592;8.858;2023-10-09T14:28:03;26.60;84.00
23124;DHT22;11731;48.592;8.858;2023-10-09T14:30:33;26.70;84.80
23124;DHT22;11731;48.592;8.858;2023-10-09T14:33:08;26.50;85.60
23124;DHT22;11731;48.592;8.858;2023-10-09T14:35:39;26.40;85.30
23124;DHT22;11731;48.592;8.858;2023-10-09T14:38:22;26.50;85.80
23124;DHT22;11731;48.592;8.858;2023-10-09T14:40:53;26.60;84.20
23124;DHT22;11731;48.592;8.858;2023-10-09T14:43:58;26.80;85.30
23124;DHT22;11731;48.592;8.858;2023-10-09T14:46:26;27.30;84.10
23124;DHT22;11731;48.592;8.858;2023-10-09T14:48:55;27.10;83.90
23124;DHT22;11731;48.592;8.858;2023-10-09T14:51:25;26.90;84.80
23124;DHT22;11731;48.592;8.858;2023-10-09T14:54:02;26.80;83.50
23124;DHT22;11731;48.592;8.858;2023-10-09T14:59:46;26.90;83.50
23124;DHT22;11731;48.592;8.858;2023-10-09T15:09:14;27.00;83.10
23124;DHT22;11731;48.592;8.858;2023-10-09T15:11:48;27.40;81.50
23124;DHT22;11731;48.592;8.858;2023-10-09T15:14:29;27.50;83.50
23124;DHT22;11731;48.592;8.858;2023-10-09T15:17:04;27.70;80.70
23124;DHT22;11731;48.592;8.858;2023-10-09T15:21:06;27.90;82.50
23124;DHT22;11731;48.592;8.858;2023-10-09T15:22:47;28.10;78.80
23124;DHT22;11731;48.592;8.858;2023-10-09T15:25:16;28.50;77.10
23124;DHT22;11731;48.592;8.858;2023-10-09T15:27:57;28.50;77.50
23124;DHT22;11731;48.592;8.858;2023-10-09T15:30:47;28.20;79.50
23124;DHT22;11731;48.592;8.858;2023-10-09T15:33:27;28.30;79.00
23124;DHT22;11731;48.592;8.858;2023-10-09T15:35:56;28.30;79.40
23124;DHT22;11731;48.592;8.858;2023-10-09T15:38:24;27.80;82.00
23124;DHT22;11731;48.592;8.858;2023-10-09T15:41:29;27.70;81.30
23124;DHT22;11731;48.592;8.858;2023-10-09T15:44:12;27.60;82.70
23124;DHT22;11731;48.592;8.858;2023-10-09T15:46:50;27.60;86.20
23124;DHT22;11731;48.592;8.858;2023-10-09T15:49:25;27.40;86.40
23124;DHT22;11731;48.592;8.858;2023-10-09T15:51:52;27.30;86.50
23124;DHT22;11731;48.592;8.858;2023-10-09T15:54:19;27.30;87.60
23124;DHT22;11731;48.592;8.858;2023-10-09T15:56:48;27.20;88.40
23124;DHT22;11731;48.592;8.858;2023-10-09T15:59:23;27.00;87.60
23124;DHT22;11731;48.592;8.858;2023-10-09T16:01:51;26.70;88.50
23124;DHT22;11731;48.592;8.858;2023-10-09T16:04:19;26.30;90.30
23124;DHT22;11731;48.592;8.858;2023-10-09T16:06:46;25.90;89.60
23124;DHT22;11731;48.592;8.858;2023-10-09T16:09:41;25.60;89.90
23124;DHT22;11731;48.592;8.858;2023-10-09T16:12:23;25.30;89.80
23124;DHT22;11731;48.592;8.858;2023-10-09T16:14:52;25.20;90.40
23124;DHT22;11731;48.592;8.858;2023-10-09T16:17:19;25.00;90.70
23124;DHT22;11731;48.592;8.858;2023-10-09T16:19:46;25.10;90.10
23124;DHT22;11731;48.592;8.858;2023-10-09T16:22:13;25.20;90.40
23124;DHT22;11731;48.592;8.858;2023-10-09T16:24:40;25.30;90.10
23124;DHT22;11731;48.592;8.858;2023-10-09T16:27:07;25.30;89.40
23124;DHT22;11731;48.592;8.858;2023-10-09T16:29:36;25.20;89.10
23124;DHT22;11731;48.592;8.858;2023-10-09T16:32:04;25.30;88.40
23124;DHT22;11731;48.592;8.858;2023-10-09T16:34:32;25.20;88.90
23124;DHT22;11731;48.592;8.858;2023-10-09T16:37:00;25.10;89.50
23124;DHT22;11731;48.592;8.858;2023-10-09T16:39:27;25.00;90.00
23124;DHT22;11731;48.592;8.858;2023-10-09T16:42:03;24.90;90.10
23124;DHT22;11731;48.592;8.858;2023-10-09T16:44:30;24.80;90.20
23124;DHT22;11731;48.592;8.858;2023-10-09T16:47:03;24.70;90.50
23124;DHT22;11731;48.592;8.858;2023-10-09T16:49:36;24.60;91.10
23124;DHT22;11731;48.592;8.858;2023-10-09T16:52:06;24.40;91.60
23124;DHT22;11731;48.592;8.858;2023-10-09T16:54:37;24.20;92.30
23124;DHT22;11731;48.592;8.858;2023-10-09T16:57:04;24.00;92.60
23124;DHT22;11731;48.592;8.858;2023-10-09T16:59:34;23.90;92.90
23124;DHT22;11731;48.592;8.858;2023-10-09T17:02:03;23.80;92.70
23124;DHT22;11731;48.592;8.858;2023-10-09T17:04:32;23.70;92.10
23124;DHT22;11731;48.592;8.858;2023-10-09T17:07:00;23.50;92.10
23124;DHT22;11731;48.592;8.858;2023-10-09T17:09:30;23.40;92.00
23124;DHT22;11731;48.592;8.858;2023-10-09T17:12:01;23.10;92.50
23124;DHT22;11731;48.592;8.858;2023-10-09T17:14:29;23.00;92.80
23124;DHT22;11731;48.592;8.858;2023-10-09T17:20:19;22.90;93.20
23124;DHT22;11731;48.592;8.858;2023-10-09T17:22:57;22.90;93.10
23124;DHT22;11731;48.592;8.858;2023-10-09T17:25:25;22.60;93.00
23124;DHT22;11731;48.592;8.858;2023-10-09T17:27:52;22.50;93.10
23124;DHT22;11731;48.592;8.858;2023-10-09T17:30:20;22.40;93.10
23124;DHT22;11731;48.592;8.858;2023-10-09T17:32:47;22.30;94.40
23124;DHT22;11731;48.592;8.858;2023-10-09T17:35:16;22.10;94.90
23124;DHT22;11731;48.592;8.858;2023-10-09T17:37:45;22.00;95.00
23124;DHT22;11731;48.592;8.858;2023-10-09T17:40:12;22.00;93.90
23124;DHT22;11731;48.592;8.858;2023-10-09T17:42:44;21.90;94.10
23124;DHT22;11731;48.592;8.858;2023-10-09T17:45:11;21.70;95.40
23124;DHT22;11731;48.592;8.858;2023-10-09T17:47:47;21.60;95.90
23124;DHT22;11731;48.592;8.858;2023-10-09T17:50:14;21.50;96.20
23124;DHT22;11731;48.592;8.858;2023-10-09T17:52:41;21.40;96.10
23124;DHT22;11731;48.592;8.858;2023-10-09T17:55:19;21.30;96.30
23124;DHT22;11731;48.592;8.858;2023-10-09T17:57:46;21.20;96.00
23124;DHT22;11731;48.592;8.858;2023-10-09T18:00:15;21.20;96.10
23124;DHT22;11731;48.592;8.858;2023-10-09T18:02:48;21.20;96.20
23124;DHT22;11731;48.592;8.858;2023-10-09T18:05:24;21.20;96.20
23124;DHT22;11731;48.592;8.858;2023-10-09T18:07:57;21.10;96.80
23124;DHT22;11731;48.592;8.858;2023-10-09T18:10:29;20.80;96.90
23124;DHT22;11731;48.592;8.858;2023-10-09T18:13:00;20.40;98.20
23124;DHT22;11731;48.592;8.858;2023-10-09T18:15:28;20.30;97.90
23124;DHT22;11731;48.592;8.858;2023-10-09T18:17:59;20.40;98.00
23124;DHT22;11731;48.592;8.858;2023-10-09T18:20:26;20.50;98.20
23124;DHT22;11731;48.592;8.858;2023-10-09T18:29:17;20.40;98.50
23124;DHT22;11731;48.592;8.858;2023-10-09T18:31:43;20.30;98.70
23124;DHT22;11731;48.592;8.858;2023-10-09T18:34:15;20.30;98.40
23124;DHT22;11731;48.592;8.858;2023-10-09T18:36:56;20.10;98.80
23124;DHT22;11731;48.592;8.858;2023-10-09T18:39:23;20.10;98.80
23124;DHT22;11731;48.592;8.858;2023-10-09T18:41:50;20.00;99.30